Lindley, New York
Current Conditions -  °F | °C
As of 12:36 PM on Wednesday 26 Nov 2014 (Local Time) from KELM Reporting Station
Moderate Snow Moderate Snow  
Wind Chill: 32°   Ceiling: 1100
Heat Index: 32°   Visibility: 0.5mi
Dew Point: 30°   Wind: 3mph
Humidity: 92%   Direction: 30°NNE
Pressure: 30.08"   Gusts: NA
Location:  42.03°N, 77.14°W
Report Text: KELM 261736Z 03003KT 1/2SM SN FG VV011 00/M01 A3008 RMK AO2 P0003 T00001011 RVRNO
Loading
Personal Weather Stations






























Interactive Weather Map New forecast layout! Learn more

10-Day Weather Forecast

Advertisements
Track Severe Weather on mobile